Time;durP1;ratioP1;P1;durP2;ratioP2;P2;SDS_P1;SDS_P2;PMS_P1;PMS_P2;Temp;Humidity;BMP_temperature;BMP_pressure;BME280_temperature;BME280_humidity;BME280_pressure;Samples;Min_cycle;Max_cycle;Signal;HPM_P1;HPM_P2
2022/01/08 00:00:21;;;;;;;26.65;10.80;;;;;;;;;;5132092;27;20027;-73
2022/01/08 00:02:48;;;;;;;22.77;12.10;;;;;;;;;;5134583;27;20036;-73
2022/01/08 00:05:15;;;;;;;21.75;9.35;;;;;;;;;;5132256;27;20023;-74
2022/01/08 00:07:41;;;;;;;18.92;8.90;;;;;;;;;;5131425;27;20400;-73
2022/01/08 00:10:08;;;;;;;15.00;6.72;;;;;;;;;;5131394;27;20035;-73
2022/01/08 00:12:34;;;;;;;16.33;6.97;;;;;;;;;;5131541;27;20393;-73
2022/01/08 00:15:00;;;;;;;14.07;6.50;;;;;;;;;;5133710;27;20029;-73
2022/01/08 00:17:27;;;;;;;14.75;7.00;;;;;;;;;;5132248;27;20500;-73
2022/01/08 00:19:53;;;;;;;17.83;7.35;;;;;;;;;;5131008;27;20018;-74
2022/01/08 00:22:19;;;;;;;17.27;8.98;;;;;;;;;;5131067;27;20023;-73
2022/01/08 00:24:47;;;;;;;18.30;9.70;;;;;;;;;;5130575;27;20496;-73
2022/01/08 00:27:13;;;;;;;19.60;9.90;;;;;;;;;;5132863;27;20031;-73
2022/01/08 00:29:40;;;;;;;18.35;8.27;;;;;;;;;;5134279;27;20031;-73
2022/01/08 00:32:06;;;;;;;14.50;7.53;;;;;;;;;;5130437;27;20015;-73
2022/01/08 00:34:33;;;;;;;10.75;7.07;;;;;;;;;;5131580;27;20026;-74
2022/01/08 00:36:59;;;;;;;17.40;6.90;;;;;;;;;;5130243;27;20392;-73
2022/01/08 00:39:25;;;;;;;15.98;6.53;;;;;;;;;;5130486;27;20020;-73
2022/01/08 00:41:52;;;;;;;11.38;6.07;;;;;;;;;;5133410;27;20037;-74
2022/01/08 00:44:18;;;;;;;9.88;5.75;;;;;;;;;;5132733;27;20020;-74
2022/01/08 00:46:45;;;;;;;11.95;5.18;;;;;;;;;;5130474;27;20051;-74
2022/01/08 00:49:11;;;;;;;10.40;5.30;;;;;;;;;;5130278;27;20019;-73
2022/01/08 00:51:38;;;;;;;13.95;6.15;;;;;;;;;;5130328;27;20029;-73
2022/01/08 00:54:04;;;;;;;11.82;5.90;;;;;;;;;;5131836;27;20034;-73
2022/01/08 00:56:30;;;;;;;12.85;6.63;;;;;;;;;;5131861;27;20024;-74
2022/01/08 00:58:56;;;;;;;14.13;6.78;;;;;;;;;;5129799;27;20039;-73
2022/01/08 01:01:23;;;;;;;13.38;5.65;;;;;;;;;;5130396;27;20025;-73
2022/01/08 01:03:49;;;;;;;12.18;5.57;;;;;;;;;;5129824;27;20481;-73
2022/01/08 01:06:16;;;;;;;11.57;4.70;;;;;;;;;;5112000;27;20015;-73
2022/01/08 01:08:42;;;;;;;12.35;5.50;;;;;;;;;;5128525;27;20027;-73
2022/01/08 01:11:08;;;;;;;7.53;4.75;;;;;;;;;;5129434;27;20016;-74
2022/01/08 01:13:35;;;;;;;7.55;3.72;;;;;;;;;;5131261;27;20023;-73
2022/01/08 01:16:02;;;;;;;10.75;5.18;;;;;;;;;;5129791;27;20497;-73
2022/01/08 01:18:28;;;;;;;6.63;2.83;;;;;;;;;;5130601;27;20034;-74
2022/01/08 01:20:55;;;;;;;4.93;2.80;;;;;;;;;;5114041;27;20031;-74
2022/01/08 01:23:29;;;;;;;4.57;2.30;;;;;;;;;;5131221;27;20031;-74
2022/01/08 01:26:00;;;;;;;15.15;6.63;;;;;;;;;;5129220;27;20385;-73
2022/01/08 01:47:03;;;;;;;7.18;2.20;;;;;;;;;;5129681;27;20569;-73
2022/01/08 01:49:33;;;;;;;3.90;1.70;;;;;;;;;;5101421;28;20031;-74
2022/01/08 01:52:00;;;;;;;2.87;1.60;;;;;;;;;;5114646;27;20027;-74
2022/01/08 01:54:28;;;;;;;1.73;1.23;;;;;;;;;;5110505;27;20017;-73
2022/01/08 01:56:55;;;;;;;1.33;0.85;;;;;;;;;;5114030;27;20046;-74
2022/01/08 01:59:21;;;;;;;2.95;1.27;;;;;;;;;;5114982;27;20040;-73
2022/01/08 02:01:48;;;;;;;2.00;1.20;;;;;;;;;;5107922;28;20022;-74
2022/01/08 02:04:14;;;;;;;2.20;1.38;;;;;;;;;;5113249;27;20023;-73
2022/01/08 02:06:40;;;;;;;3.28;1.67;;;;;;;;;;5112583;28;20015;-73
2022/01/08 02:09:07;;;;;;;2.55;1.67;;;;;;;;;;5110879;28;20466;-74
2022/01/08 02:11:33;;;;;;;2.65;1.05;;;;;;;;;;5115695;28;20474;-73
2022/01/08 02:14:03;;;;;;;3.17;1.33;;;;;;;;;;5113144;28;20035;-73
2022/01/08 02:16:30;;;;;;;2.72;1.58;;;;;;;;;;5094783;28;20044;-73
2022/01/08 02:18:56;;;;;;;2.67;1.40;;;;;;;;;;5112949;28;20016;-74
2022/01/08 02:21:22;;;;;;;4.03;1.48;;;;;;;;;;5109347;27;20036;-73
2022/01/08 02:23:49;;;;;;;3.13;1.42;;;;;;;;;;5119349;27;20478;-74
2022/01/08 02:26:15;;;;;;;3.78;1.23;;;;;;;;;;5101124;28;20027;-74
2022/01/08 02:28:41;;;;;;;3.30;1.30;;;;;;;;;;5117451;27;20031;-74
2022/01/08 02:31:19;;;;;;;2.35;0.98;;;;;;;;;;5118597;27;20072;-74
2022/01/08 02:33:45;;;;;;;3.45;0.90;;;;;;;;;;5116942;27;20019;-73
2022/01/08 02:36:12;;;;;;;1.45;0.80;;;;;;;;;;5113071;27;20516;-73
2022/01/08 02:38:39;;;;;;;1.45;0.80;;;;;;;;;;5120345;27;20034;-73
2022/01/08 02:41:06;;;;;;;1.20;0.60;;;;;;;;;;5117050;27;20027;-73
2022/01/08 02:43:39;;;;;;;1.50;0.82;;;;;;;;;;5117099;27;20036;-73
2022/01/08 02:46:06;;;;;;;2.67;1.30;;;;;;;;;;5116323;27;20492;-73
2022/01/08 02:48:33;;;;;;;2.60;1.23;;;;;;;;;;5112504;28;20036;-72
2022/01/08 02:50:59;;;;;;;1.50;0.95;;;;;;;;;;5114183;28;20038;-73
2022/01/08 02:53:25;;;;;;;1.50;0.93;;;;;;;;;;5113548;28;20028;-73
2022/01/08 02:55:52;;;;;;;1.58;0.93;;;;;;;;;;5112087;28;20492;-73
2022/01/08 02:58:18;;;;;;;1.17;0.90;;;;;;;;;;5112388;28;20076;-73
2022/01/08 03:00:45;;;;;;;1.30;1.00;;;;;;;;;;5112296;28;20038;-73
2022/01/08 03:03:12;;;;;;;1.80;0.93;;;;;;;;;;5112913;28;20016;-73
2022/01/08 03:05:39;;;;;;;1.98;1.25;;;;;;;;;;5114977;28;20427;-73
2022/01/08 03:08:05;;;;;;;1.48;1.10;;;;;;;;;;5112051;28;20020;-74
2022/01/08 03:10:31;;;;;;;1.73;1.38;;;;;;;;;;5113479;28;20379;-73
2022/01/08 03:12:58;;;;;;;3.78;1.42;;;;;;;;;;5111898;28;20087;-73
2022/01/08 03:15:25;;;;;;;3.70;1.50;;;;;;;;;;5093962;28;20024;-74
2022/01/08 03:17:51;;;;;;;1.83;1.08;;;;;;;;;;5114650;28;20040;-74
2022/01/08 03:20:18;;;;;;;3.33;1.15;;;;;;;;;;5112811;28;20024;-73
2022/01/08 03:22:46;;;;;;;1.98;1.00;;;;;;;;;;5089292;28;20022;-73
2022/01/08 03:25:13;;;;;;;2.35;1.23;;;;;;;;;;5111562;28;20016;-73
2022/01/08 03:27:41;;;;;;;4.43;1.20;;;;;;;;;;5112187;28;20024;-73
2022/01/08 03:30:08;;;;;;;3.25;1.50;;;;;;;;;;5112836;28;20030;-74
2022/01/08 03:32:34;;;;;;;2.70;1.02;;;;;;;;;;5114329;28;20030;-72
2022/01/08 03:35:01;;;;;;;1.83;0.93;;;;;;;;;;5111124;28;20012;-72
2022/01/08 03:37:27;;;;;;;2.45;1.23;;;;;;;;;;5111271;28;20042;-73
2022/01/08 03:39:54;;;;;;;1.80;0.88;;;;;;;;;;5111490;28;20036;-73
2022/01/08 03:42:20;;;;;;;1.23;0.80;;;;;;;;;;5111688;28;20036;-74
2022/01/08 03:44:46;;;;;;;2.55;1.05;;;;;;;;;;5114448;28;20080;-73
2022/01/08 03:49:49;;;;;;;2.58;1.10;;;;;;;;;;5120429;27;20024;-73
2022/01/08 03:52:15;;;;;;;2.35;0.93;;;;;;;;;;5115883;27;20499;-73
2022/01/08 03:54:41;;;;;;;2.67;0.73;;;;;;;;;;5115049;27;20011;-73
2022/01/08 03:57:08;;;;;;;5.18;1.20;;;;;;;;;;5095090;28;20042;-73
2022/01/08 03:59:34;;;;;;;2.58;0.77;;;;;;;;;;5100498;28;20026;-73
2022/01/08 04:02:01;;;;;;;6.45;1.30;;;;;;;;;;5116265;27;20034;-73
2022/01/08 04:04:27;;;;;;;7.43;1.30;;;;;;;;;;5115737;27;20023;-74
2022/01/08 04:06:54;;;;;;;4.72;0.70;;;;;;;;;;5115948;27;20015;-73
2022/01/08 04:09:20;;;;;;;6.60;1.13;;;;;;;;;;5112267;27;20036;-73
2022/01/08 04:11:46;;;;;;;5.35;1.05;;;;;;;;;;5117943;27;20020;-74
2022/01/08 04:14:15;;;;;;;7.30;1.17;;;;;;;;;;5097597;28;20405;-74
2022/01/08 04:16:45;;;;;;;7.97;1.48;;;;;;;;;;5114847;27;20020;-73
2022/01/08 04:19:12;;;;;;;8.10;1.58;;;;;;;;;;5113104;27;20034;-74
2022/01/08 04:21:59;;;;;;;5.55;1.10;;;;;;;;;;5127466;27;20029;-73
2022/01/08 04:24:26;;;;;;;6.20;1.00;;;;;;;;;;5097739;27;20016;-73
2022/01/08 04:26:53;;;;;;;8.93;1.70;;;;;;;;;;5115977;27;20023;-74
2022/01/08 04:29:19;;;;;;;10.20;1.83;;;;;;;;;;5117397;27;20027;-73
2022/01/08 04:31:45;;;;;;;6.10;1.35;;;;;;;;;;5108956;28;20020;-73
2022/01/08 04:34:11;;;;;;;11.70;1.58;;;;;;;;;;5114705;27;20050;-74
2022/01/08 04:36:38;;;;;;;6.13;1.17;;;;;;;;;;5113382;27;20432;-73
2022/01/08 04:39:04;;;;;;;6.43;1.40;;;;;;;;;;5113332;27;20024;-73
2022/01/08 04:41:31;;;;;;;9.57;1.45;;;;;;;;;;5098428;28;20066;-73
2022/01/08 04:43:57;;;;;;;10.18;1.40;;;;;;;;;;5114018;27;20023;-74
2022/01/08 04:46:24;;;;;;;8.60;1.35;;;;;;;;;;5113978;27;20042;-74
2022/01/08 04:48:50;;;;;;;9.45;1.83;;;;;;;;;;5110133;28;20034;-74
2022/01/08 04:51:17;;;;;;;7.38;1.45;;;;;;;;;;5109966;28;20026;-74
2022/01/08 04:53:43;;;;;;;8.25;1.45;;;;;;;;;;5095677;28;20035;-74
2022/01/08 04:56:09;;;;;;;10.50;1.50;;;;;;;;;;5109703;28;20023;-73
2022/01/08 04:58:36;;;;;;;6.80;1.95;;;;;;;;;;5110055;28;20033;-73
2022/01/08 05:01:02;;;;;;;7.75;1.27;;;;;;;;;;5109457;28;20003;-73
2022/01/08 05:03:28;;;;;;;10.52;1.70;;;;;;;;;;5109777;28;20036;-73
2022/01/08 05:05:55;;;;;;;7.53;1.63;;;;;;;;;;5112287;28;20030;-73
2022/01/08 05:08:21;;;;;;;13.20;2.47;;;;;;;;;;5112496;28;20035;-73
2022/01/08 05:10:47;;;;;;;9.63;1.80;;;;;;;;;;5109507;28;20035;-74
2022/01/08 05:13:14;;;;;;;9.95;1.88;;;;;;;;;;5109184;28;20025;-73
2022/01/08 05:15:40;;;;;;;9.82;2.15;;;;;;;;;;5109638;28;20027;-74
2022/01/08 05:18:09;;;;;;;15.45;2.22;;;;;;;;;;5110577;28;20040;-73
2022/01/08 05:20:38;;;;;;;8.68;1.50;;;;;;;;;;5093809;28;20037;-74
2022/01/08 05:23:05;;;;;;;14.02;2.45;;;;;;;;;;5109107;28;20019;-73
2022/01/08 05:25:31;;;;;;;14.52;2.22;;;;;;;;;;5109110;28;20031;-73
2022/01/08 05:27:58;;;;;;;16.63;2.13;;;;;;;;;;5109432;28;20018;-73
2022/01/08 05:30:25;;;;;;;9.75;2.08;;;;;;;;;;5090672;28;20036;-74
2022/01/08 05:32:52;;;;;;;14.80;1.77;;;;;;;;;;5111934;28;20038;-73
2022/01/08 05:35:18;;;;;;;11.13;2.45;;;;;;;;;;5111111;28;20019;-73
2022/01/08 05:37:44;;;;;;;16.05;1.98;;;;;;;;;;5109013;28;20046;-74
2022/01/08 05:40:11;;;;;;;15.75;2.53;;;;;;;;;;5109199;28;20022;-73
2022/01/08 05:42:38;;;;;;;12.02;1.85;;;;;;;;;;5108944;28;20032;-73
2022/01/08 05:45:04;;;;;;;12.68;2.00;;;;;;;;;;5110166;28;20040;-73
2022/01/08 05:47:33;;;;;;;14.27;1.85;;;;;;;;;;5106635;27;20055;-73
2022/01/08 05:49:59;;;;;;;13.93;2.35;;;;;;;;;;5114986;27;20016;-73
2022/01/08 05:52:26;;;;;;;16.45;2.95;;;;;;;;;;5113407;27;20051;-73
2022/01/08 05:54:52;;;;;;;13.55;1.85;;;;;;;;;;5113137;27;20027;-73
2022/01/08 05:57:19;;;;;;;15.75;2.50;;;;;;;;;;5108388;27;20038;-73
2022/01/08 05:59:46;;;;;;;17.02;2.10;;;;;;;;;;5116046;27;20016;-73
2022/01/08 06:02:12;;;;;;;15.35;2.15;;;;;;;;;;5115141;28;20379;-73
2022/01/08 06:04:38;;;;;;;16.30;2.50;;;;;;;;;;5113333;27;20015;-73
2022/01/08 06:07:05;;;;;;;15.23;2.30;;;;;;;;;;5113376;27;20041;-73
2022/01/08 06:09:31;;;;;;;11.60;2.15;;;;;;;;;;5110407;28;20019;-73
2022/01/08 06:11:58;;;;;;;14.90;2.40;;;;;;;;;;5113316;28;20015;-74
2022/01/08 06:14:24;;;;;;;16.23;2.30;;;;;;;;;;5114355;28;20027;-73
2022/01/08 06:16:51;;;;;;;17.27;2.40;;;;;;;;;;5113363;28;20508;-73
2022/01/08 06:19:17;;;;;;;15.43;2.28;;;;;;;;;;5113492;28;20019;-73
2022/01/08 06:21:44;;;;;;;12.98;2.28;;;;;;;;;;5112740;28;20031;-73
2022/01/08 06:24:10;;;;;;;14.35;1.88;;;;;;;;;;5110974;28;20042;-73
2022/01/08 06:26:37;;;;;;;12.75;2.60;;;;;;;;;;5094774;28;20039;-73
2022/01/08 06:29:03;;;;;;;15.27;2.58;;;;;;;;;;5113582;28;20023;-73
2022/01/08 06:31:30;;;;;;;13.55;1.95;;;;;;;;;;5113548;28;20020;-73
2022/01/08 06:33:56;;;;;;;15.68;2.42;;;;;;;;;;5093073;28;20075;-73
2022/01/08 06:36:23;;;;;;;16.38;2.70;;;;;;;;;;5109861;28;20024;-73
2022/01/08 06:38:50;;;;;;;16.08;2.60;;;;;;;;;;5114893;28;20069;-73
2022/01/08 06:41:16;;;;;;;10.38;2.50;;;;;;;;;;5114378;28;20036;-74
2022/01/08 06:43:43;;;;;;;16.13;2.30;;;;;;;;;;5112631;28;20026;-73
2022/01/08 06:46:09;;;;;;;9.88;1.95;;;;;;;;;;5088608;28;20408;-74
2022/01/08 06:48:36;;;;;;;12.23;2.10;;;;;;;;;;5125336;28;20028;-73
2022/01/08 06:51:02;;;;;;;44.20;13.45;;;;;;;;;;5112567;28;20085;-73
2022/01/08 06:53:29;;;;;;;41.88;14.85;;;;;;;;;;5092044;28;20065;-73
2022/01/08 06:55:55;;;;;;;28.67;9.45;;;;;;;;;;5113089;28;20022;-73
2022/01/08 06:58:24;;;;;;;56.95;19.83;;;;;;;;;;5112803;28;20038;-73
2022/01/08 07:00:51;;;;;;;34.63;11.18;;;;;;;;;;5114126;28;20022;-73
2022/01/08 07:03:17;;;;;;;15.10;3.55;;;;;;;;;;5110899;28;20405;-73
2022/01/08 07:05:43;;;;;;;9.23;3.00;;;;;;;;;;5121837;28;20019;-73
2022/01/08 07:08:10;;;;;;;13.18;3.38;;;;;;;;;;5115234;27;20030;-73
2022/01/08 07:10:37;;;;;;;11.20;2.58;;;;;;;;;;5116659;27;20023;-74
2022/01/08 07:13:04;;;;;;;13.60;5.38;;;;;;;;;;5116809;27;20027;-73
2022/01/08 07:15:30;;;;;;;26.90;8.82;;;;;;;;;;5114193;27;20020;-73
2022/01/08 07:17:57;;;;;;;21.05;5.70;;;;;;;;;;5116636;27;20088;-73
2022/01/08 07:20:24;;;;;;;21.17;4.85;;;;;;;;;;5127023;27;20027;-74
2022/01/08 07:22:50;;;;;;;34.95;8.05;;;;;;;;;;5119259;27;20030;-73
2022/01/08 07:25:16;;;;;;;14.85;4.22;;;;;;;;;;5116163;27;20068;-73
2022/01/08 07:27:43;;;;;;;32.90;7.20;;;;;;;;;;5115372;27;20412;-73
2022/01/08 07:30:10;;;;;;;32.80;9.27;;;;;;;;;;5114067;27;20063;-74
2022/01/08 07:32:42;;;;;;;33.83;8.18;;;;;;;;;;5118697;27;20434;-73
2022/01/08 07:35:09;;;;;;;42.95;12.45;;;;;;;;;;5117463;27;20028;-73
2022/01/08 07:37:35;;;;;;;51.50;13.82;;;;;;;;;;5116044;27;20085;-73
2022/01/08 07:40:01;;;;;;;39.08;10.50;;;;;;;;;;5115652;27;20080;-73
2022/01/08 07:42:28;;;;;;;32.65;9.40;;;;;;;;;;5115074;27;20016;-73
2022/01/08 07:44:54;;;;;;;19.00;7.63;;;;;;;;;;5117200;27;20069;-73
2022/01/08 07:47:20;;;;;;;20.98;6.30;;;;;;;;;;5117246;27;20055;-73
2022/01/08 07:49:47;;;;;;;10.88;4.13;;;;;;;;;;5112380;28;20037;-73
2022/01/08 07:52:13;;;;;;;10.77;4.05;;;;;;;;;;5111751;28;20085;-74
2022/01/08 07:54:40;;;;;;;10.98;4.32;;;;;;;;;;5112372;28;20020;-73
2022/01/08 07:57:07;;;;;;;9.68;3.75;;;;;;;;;;5095119;28;20035;-73
2022/01/08 07:59:33;;;;;;;6.93;2.90;;;;;;;;;;5113342;28;20019;-73
2022/01/08 08:01:59;;;;;;;8.25;3.28;;;;;;;;;;5110999;28;20364;-73
2022/01/08 08:04:26;;;;;;;13.45;3.35;;;;;;;;;;5111487;28;20027;-73
2022/01/08 08:06:52;;;;;;;6.80;2.80;;;;;;;;;;5111222;28;20038;-73
2022/01/08 08:09:19;;;;;;;7.70;3.78;;;;;;;;;;5110883;28;20012;-73
2022/01/08 08:11:45;;;;;;;6.75;4.85;;;;;;;;;;5114303;28;20016;-74
2022/01/08 08:14:11;;;;;;;7.40;3.95;;;;;;;;;;5110485;28;20481;-74
2022/01/08 08:16:38;;;;;;;19.50;11.55;;;;;;;;;;5087925;28;20046;-73
2022/01/08 08:19:05;;;;;;;5.80;3.40;;;;;;;;;;5109704;28;20028;-74
2022/01/08 08:21:31;;;;;;;15.82;9.25;;;;;;;;;;5112254;28;20035;-73
2022/01/08 08:23:57;;;;;;;13.20;6.65;;;;;;;;;;5094052;28;20404;-73
2022/01/08 08:26:24;;;;;;;6.20;3.70;;;;;;;;;;5112722;28;20024;-73
2022/01/08 08:28:50;;;;;;;7.97;4.57;;;;;;;;;;5110409;28;20089;-73
2022/01/08 08:31:16;;;;;;;5.63;2.03;;;;;;;;;;5110654;28;20394;-73
2022/01/08 08:33:43;;;;;;;3.60;1.88;;;;;;;;;;5110879;28;20022;-74
2022/01/08 08:36:09;;;;;;;4.50;1.60;;;;;;;;;;5111367;28;20028;-73
2022/01/08 08:38:36;;;;;;;5.22;1.48;;;;;;;;;;5094765;28;20046;-74
2022/01/08 08:41:02;;;;;;;5.35;1.52;;;;;;;;;;5110812;28;20018;-73
2022/01/08 08:43:29;;;;;;;3.80;1.08;;;;;;;;;;5110287;28;20048;-73
2022/01/08 08:45:55;;;;;;;2.20;0.93;;;;;;;;;;5110344;28;20014;-73
2022/01/08 08:48:22;;;;;;;3.00;1.30;;;;;;;;;;5125241;27;20048;-73
2022/01/08 08:50:48;;;;;;;3.33;1.05;;;;;;;;;;5117508;27;20034;-74
2022/01/08 08:53:14;;;;;;;5.95;1.10;;;;;;;;;;5114960;27;20031;-73
2022/01/08 08:55:41;;;;;;;4.28;1.27;;;;;;;;;;5114564;27;20512;-74
2022/01/08 08:58:07;;;;;;;5.75;1.63;;;;;;;;;;5114662;27;20033;-73
2022/01/08 09:00:33;;;;;;;10.20;2.03;;;;;;;;;;5113730;27;20026;-73
2022/01/08 09:03:00;;;;;;;8.18;1.50;;;;;;;;;;5114458;27;20035;-73
2022/01/08 09:05:26;;;;;;;7.20;1.95;;;;;;;;;;5115557;27;20030;-73
2022/01/08 09:07:53;;;;;;;7.60;1.92;;;;;;;;;;5114476;27;20482;-73
2022/01/08 09:10:25;;;;;;;13.65;2.58;;;;;;;;;;5114265;27;20031;-73
2022/01/08 09:12:52;;;;;;;7.93;2.10;;;;;;;;;;5113958;27;20023;-73
2022/01/08 09:15:24;;;;;;;14.13;2.70;;;;;;;;;;5110070;28;20028;-74
2022/01/08 09:17:51;;;;;;;11.43;2.10;;;;;;;;;;5098832;28;20064;-73
2022/01/08 09:20:17;;;;;;;14.73;3.20;;;;;;;;;;5114945;27;20490;-73
2022/01/08 09:22:44;;;;;;;11.90;2.50;;;;;;;;;;5113609;27;20020;-73
2022/01/08 09:25:11;;;;;;;17.45;2.90;;;;;;;;;;5095670;28;20379;-74
2022/01/08 09:27:37;;;;;;;16.52;2.80;;;;;;;;;;5112643;27;20027;-73
2022/01/08 09:30:05;;;;;;;6.95;2.28;;;;;;;;;;5095086;28;20042;-73
2022/01/08 09:32:31;;;;;;;10.10;2.45;;;;;;;;;;5115681;27;20030;-73
2022/01/08 09:34:58;;;;;;;8.15;1.77;;;;;;;;;;5114046;27;20040;-73
2022/01/08 09:37:24;;;;;;;5.97;2.70;;;;;;;;;;5114015;27;20028;-73
2022/01/08 09:39:50;;;;;;;13.65;2.95;;;;;;;;;;5115628;27;20015;-73
2022/01/08 09:42:17;;;;;;;11.50;2.20;;;;;;;;;;5109525;28;20019;-73
2022/01/08 09:44:44;;;;;;;11.55;2.20;;;;;;;;;;5117405;27;20498;-73
2022/01/08 09:47:14;;;;;;;7.72;2.38;;;;;;;;;;5123362;27;20043;-74
2022/01/08 09:49:41;;;;;;;11.07;2.30;;;;;;;;;;5129316;27;20027;-73
2022/01/08 09:52:07;;;;;;;13.45;3.72;;;;;;;;;;5128878;27;20401;-73
2022/01/08 09:54:34;;;;;;;13.95;2.53;;;;;;;;;;5113365;27;20034;-73
2022/01/08 09:57:00;;;;;;;10.60;2.15;;;;;;;;;;5131706;27;20511;-74
2022/01/08 09:59:28;;;;;;;12.52;1.92;;;;;;;;;;5130776;27;20023;-73
2022/01/08 10:01:56;;;;;;;12.80;2.20;;;;;;;;;;5110926;28;20026;-73
2022/01/08 10:04:26;;;;;;;8.32;1.58;;;;;;;;;;5128890;27;20031;-73
2022/01/08 10:06:53;;;;;;;10.38;1.65;;;;;;;;;;5128710;27;20061;-74
2022/01/08 10:09:19;;;;;;;9.88;2.08;;;;;;;;;;5129617;27;20039;-73
2022/01/08 10:11:49;;;;;;;8.90;1.95;;;;;;;;;;5132906;28;20495;-73
2022/01/08 10:14:28;;;;;;;6.57;1.40;;;;;;;;;;5129742;28;20016;-73
2022/01/08 10:19:40;;;;;;;14.82;3.20;;;;;;;;;;5130011;28;20023;-73
2022/01/08 10:22:17;;;;;;;11.48;2.95;;;;;;;;;;5128925;28;20023;-73
2022/01/08 10:24:44;;;;;;;7.57;2.17;;;;;;;;;;5128943;28;20025;-73
2022/01/08 10:27:10;;;;;;;9.70;2.05;;;;;;;;;;5130192;28;20032;-73
2022/01/08 10:29:36;;;;;;;7.47;1.40;;;;;;;;;;5131814;28;20027;-73
2022/01/08 10:32:05;;;;;;;8.02;1.98;;;;;;;;;;5128751;28;20021;-73
2022/01/08 10:34:31;;;;;;;8.32;1.85;;;;;;;;;;5128752;28;20023;-73
2022/01/08 10:37:01;;;;;;;8.43;1.75;;;;;;;;;;5128495;28;20035;-74
2022/01/08 10:39:31;;;;;;;8.27;1.75;;;;;;;;;;5128850;28;20030;-73
2022/01/08 10:42:08;;;;;;;12.40;2.35;;;;;;;;;;5131458;27;20027;-73
2022/01/08 10:44:34;;;;;;;10.00;1.58;;;;;;;;;;5135540;27;20033;-73
2022/01/08 10:47:05;;;;;;;7.03;1.95;;;;;;;;;;5132567;27;20027;-73
2022/01/08 10:49:34;;;;;;;9.70;2.08;;;;;;;;;;5133131;27;20049;-74
2022/01/08 10:52:02;;;;;;;10.50;3.25;;;;;;;;;;5133168;27;20020;-74
2022/01/08 10:54:29;;;;;;;13.45;4.35;;;;;;;;;;5133710;27;20055;-73
2022/01/08 10:56:57;;;;;;;9.52;2.40;;;;;;;;;;5135421;27;20027;-73
2022/01/08 10:59:25;;;;;;;13.40;2.10;;;;;;;;;;5135833;27;20033;-74
2022/01/08 11:01:53;;;;;;;14.27;3.22;;;;;;;;;;5132940;27;20011;-73
2022/01/08 11:04:31;;;;;;;15.25;3.30;;;;;;;;;;5131938;27;20046;-73
2022/01/08 11:06:58;;;;;;;11.20;3.38;;;;;;;;;;5132966;27;20388;-73
2022/01/08 11:09:25;;;;;;;10.10;2.22;;;;;;;;;;5132704;27;20475;-73
2022/01/08 11:11:52;;;;;;;8.10;2.03;;;;;;;;;;5135984;27;20030;-73
2022/01/08 11:14:46;;;;;;;10.02;2.35;;;;;;;;;;5133680;27;20056;-73
2022/01/08 11:17:20;;;;;;;11.45;2.38;;;;;;;;;;5131987;27;20042;-73
2022/01/08 11:19:51;;;;;;;12.98;2.00;;;;;;;;;;5132666;27;20503;-73
2022/01/08 11:22:19;;;;;;;12.38;2.17;;;;;;;;;;5132458;27;20034;-74
2022/01/08 11:24:51;;;;;;;15.40;2.80;;;;;;;;;;5132547;27;20020;-73
2022/01/08 11:27:24;;;;;;;11.10;2.10;;;;;;;;;;5116468;27;20019;-73
2022/01/08 11:29:56;;;;;;;14.27;3.53;;;;;;;;;;5131882;27;20033;-73
2022/01/08 11:32:23;;;;;;;15.95;3.15;;;;;;;;;;5134891;27;20033;-74
2022/01/08 11:34:50;;;;;;;11.75;2.60;;;;;;;;;;5132076;27;20003;-73
2022/01/08 11:37:16;;;;;;;10.02;2.75;;;;;;;;;;5133492;27;20031;-73
2022/01/08 11:39:44;;;;;;;14.65;3.70;;;;;;;;;;5132521;27;20019;-73
2022/01/08 11:42:12;;;;;;;18.00;3.40;;;;;;;;;;5133102;27;20022;-74
2022/01/08 11:44:39;;;;;;;11.80;2.60;;;;;;;;;;5134692;27;20030;-74
2022/01/08 11:47:07;;;;;;;14.68;5.55;;;;;;;;;;5131459;27;20037;-73
2022/01/08 11:49:34;;;;;;;12.68;3.33;;;;;;;;;;5121450;27;20016;-73
2022/01/08 11:52:16;;;;;;;8.52;2.38;;;;;;;;;;5116056;27;20030;-73
2022/01/08 11:54:44;;;;;;;8.65;2.33;;;;;;;;;;5114948;27;20023;-73
2022/01/08 11:57:18;;;;;;;8.35;2.72;;;;;;;;;;5095208;28;20064;-73
2022/01/08 11:59:44;;;;;;;8.82;2.10;;;;;;;;;;5119333;27;20511;-73
2022/01/08 12:02:12;;;;;;;11.70;1.92;;;;;;;;;;5115304;27;20022;-73
2022/01/08 12:04:41;;;;;;;8.55;2.08;;;;;;;;;;5115621;27;20026;-73
2022/01/08 12:07:29;;;;;;;10.35;2.00;;;;;;;;;;5114904;27;20027;-74
2022/01/08 12:10:10;;;;;;;11.07;2.85;;;;;;;;;;5115374;27;20028;-73
2022/01/08 12:12:57;;;;;;;12.43;2.60;;;;;;;;;;5113527;27;20020;-73
2022/01/08 12:15:53;;;;;;;9.95;3.20;;;;;;;;;;5097351;28;20026;-74
2022/01/08 12:18:21;;;;;;;10.05;2.05;;;;;;;;;;5082055;28;20490;-73
2022/01/08 12:20:48;;;;;;;11.32;2.42;;;;;;;;;;5099715;28;20053;-73
2022/01/08 12:23:31;;;;;;;14.10;2.55;;;;;;;;;;5116996;27;20034;-73
2022/01/08 12:26:10;;;;;;;9.93;2.65;;;;;;;;;;5115264;27;20018;-73
2022/01/08 12:28:40;;;;;;;8.90;1.98;;;;;;;;;;5115290;27;20398;-73
2022/01/08 12:31:26;;;;;;;7.13;1.95;;;;;;;;;;5114825;27;20071;-73
2022/01/08 12:34:15;;;;;;;6.75;1.77;;;;;;;;;;5115029;27;20025;-73
2022/01/08 12:37:01;;;;;;;9.00;1.90;;;;;;;;;;5114079;27;20055;-73
2022/01/08 12:39:30;;;;;;;8.20;1.98;;;;;;;;;;5079785;27;20030;-73
2022/01/08 12:42:16;;;;;;;10.18;2.42;;;;;;;;;;5115823;27;20037;-73
2022/01/08 12:44:42;;;;;;;11.15;2.20;;;;;;;;;;5117634;27;20489;-73
2022/01/08 12:47:09;;;;;;;10.88;2.40;;;;;;;;;;5116169;27;20047;-73
2022/01/08 12:49:35;;;;;;;10.35;2.50;;;;;;;;;;5130364;27;20019;-73
2022/01/08 12:52:01;;;;;;;9.35;2.28;;;;;;;;;;5130160;27;20385;-74
2022/01/08 12:54:28;;;;;;;10.38;2.25;;;;;;;;;;5131932;27;20504;-73
2022/01/08 12:56:55;;;;;;;11.82;2.30;;;;;;;;;;5133376;27;20027;-74
2022/01/08 12:59:29;;;;;;;7.25;1.80;;;;;;;;;;5114380;27;20027;-73
2022/01/08 13:01:55;;;;;;;12.32;2.38;;;;;;;;;;5130058;27;20057;-73
2022/01/08 13:04:23;;;;;;;11.98;2.08;;;;;;;;;;5129985;27;20071;-73
2022/01/08 13:06:49;;;;;;;10.00;2.40;;;;;;;;;;5114347;27;20529;-73
2022/01/08 13:09:16;;;;;;;13.25;2.13;;;;;;;;;;5112301;27;20026;-73
2022/01/08 13:11:43;;;;;;;9.18;2.40;;;;;;;;;;5133124;27;20037;-73
2022/01/08 13:14:21;;;;;;;13.48;2.90;;;;;;;;;;5129046;27;20023;-73
2022/01/08 13:16:49;;;;;;;9.05;2.35;;;;;;;;;;5129657;27;20193;-73
2022/01/08 13:19:17;;;;;;;7.78;1.83;;;;;;;;;;5129791;27;20069;-73
2022/01/08 13:21:53;;;;;;;7.05;2.10;;;;;;;;;;5130295;27;20014;-72
2022/01/08 13:24:27;;;;;;;13.13;2.72;;;;;;;;;;5114284;27;20019;-73
2022/01/08 13:27:01;;;;;;;11.30;2.75;;;;;;;;;;5132086;27;20048;-73
2022/01/08 13:29:27;;;;;;;7.50;3.03;;;;;;;;;;5132451;27;20034;-73
2022/01/08 13:32:04;;;;;;;7.82;2.38;;;;;;;;;;5129209;27;20359;-73
2022/01/08 13:34:35;;;;;;;5.93;2.08;;;;;;;;;;5130774;27;20023;-73
2022/01/08 13:37:01;;;;;;;6.10;1.95;;;;;;;;;;5129939;27;20023;-73
2022/01/08 13:39:31;;;;;;;5.57;1.75;;;;;;;;;;5129713;27;20371;-73
2022/01/08 13:42:10;;;;;;;8.63;1.80;;;;;;;;;;5131763;27;20486;-73
2022/01/08 13:44:38;;;;;;;3.00;1.10;;;;;;;;;;5131945;27;20038;-73
2022/01/08 13:47:05;;;;;;;5.88;1.55;;;;;;;;;;5129216;27;20035;-73
2022/01/08 13:49:31;;;;;;;4.07;1.42;;;;;;;;;;5129514;27;20027;-73
2022/01/08 13:51:58;;;;;;;6.38;1.88;;;;;;;;;;5129038;27;20021;-73
2022/01/08 13:54:34;;;;;;;4.15;1.33;;;;;;;;;;5129831;27;20034;-73
2022/01/08 13:57:14;;;;;;;3.60;1.55;;;;;;;;;;5131405;27;20116;-73
2022/01/08 13:59:41;;;;;;;5.82;1.50;;;;;;;;;;5114346;27;20027;-73
2022/01/08 14:02:08;;;;;;;3.47;1.33;;;;;;;;;;5129308;27;20087;-72
2022/01/08 14:04:36;;;;;;;7.80;1.75;;;;;;;;;;5129233;27;20016;-73
2022/01/08 14:07:02;;;;;;;6.68;1.58;;;;;;;;;;5128889;27;20023;-73
2022/01/08 14:09:29;;;;;;;3.33;1.25;;;;;;;;;;5130776;27;20548;-73
2022/01/08 14:12:14;;;;;;;4.93;1.50;;;;;;;;;;5131274;27;20374;-73
2022/01/08 14:14:50;;;;;;;10.10;1.90;;;;;;;;;;5132239;28;20027;-73
2022/01/08 14:17:17;;;;;;;6.43;1.63;;;;;;;;;;5130008;27;20043;-74
2022/01/08 14:19:44;;;;;;;7.05;1.95;;;;;;;;;;5128879;28;20030;-73
2022/01/08 14:22:10;;;;;;;7.70;1.92;;;;;;;;;;5129056;28;20027;-73
2022/01/08 14:24:41;;;;;;;5.90;1.70;;;;;;;;;;5129019;28;20011;-73
2022/01/08 14:27:09;;;;;;;9.10;2.88;;;;;;;;;;5130229;28;20024;-73
2022/01/08 14:29:37;;;;;;;10.18;3.15;;;;;;;;;;5112893;28;20046;-73
2022/01/08 14:32:08;;;;;;;9.70;2.35;;;;;;;;;;5129087;28;20023;-73
2022/01/08 14:34:50;;;;;;;8.63;1.70;;;;;;;;;;5128811;28;20367;-73
2022/01/08 14:37:36;;;;;;;6.60;1.83;;;;;;;;;;5128304;28;20023;-73
2022/01/08 14:40:19;;;;;;;4.95;1.35;;;;;;;;;;5128597;28;20416;-73
2022/01/08 14:42:47;;;;;;;8.00;3.88;;;;;;;;;;5128712;28;20362;-73
2022/01/08 14:45:19;;;;;;;15.75;7.72;;;;;;;;;;5129408;28;20016;-73
2022/01/08 14:47:46;;;;;;;13.60;6.50;;;;;;;;;;5132436;28;20068;-73
2022/01/08 14:50:17;;;;;;;8.82;3.38;;;;;;;;;;5128957;28;20033;-73
2022/01/08 14:52:44;;;;;;;4.70;2.00;;;;;;;;;;5130277;28;20011;-73
2022/01/08 14:55:11;;;;;;;4.80;1.50;;;;;;;;;;5128400;28;20447;-73
2022/01/08 14:57:38;;;;;;;5.05;1.45;;;;;;;;;;5110507;28;20031;-73
2022/01/08 15:00:06;;;;;;;4.70;1.27;;;;;;;;;;5130817;28;20023;-73
2022/01/08 15:02:33;;;;;;;5.20;2.50;;;;;;;;;;5111832;28;20033;-74
2022/01/08 15:05:00;;;;;;;4.03;1.92;;;;;;;;;;5128384;28;20020;-74